createdAt,value
2023-09-28T00:05:53.542Z,9.10
2023-09-28T00:15:57.650Z,10.15
2023-09-28T00:26:00.444Z,10.38
2023-09-28T00:36:05.133Z,10.60
2023-09-28T00:46:08.456Z,13.85
2023-09-28T00:56:13.980Z,10.68
2023-09-28T01:06:16.751Z,11.88
2023-09-28T01:16:21.636Z,10.32
2023-09-28T01:26:31.420Z,14.23
2023-09-28T01:36:34.186Z,9.18
2023-09-28T01:46:38.330Z,7.88
2023-09-28T01:56:41.158Z,8.68
2023-09-28T02:06:45.286Z,7.88
2023-09-28T02:16:48.020Z,9.80
2023-09-28T02:26:53.580Z,8.18
2023-09-28T02:36:56.546Z,10.23
2023-09-28T02:47:00.656Z,11.90
2023-09-28T02:57:03.443Z,7.93
2023-09-28T03:07:08.188Z,8.68
2023-09-28T03:17:10.928Z,8.57
2023-09-28T03:27:15.081Z,7.68
2023-09-28T03:37:19.883Z,7.53
2023-09-28T03:47:24.167Z,8.88
2023-09-28T03:57:26.929Z,10.18
2023-09-28T04:07:31.180Z,8.02
2023-09-28T04:17:35.663Z,11.98
2023-09-28T04:27:40.043Z,8.48
2023-09-28T04:37:42.791Z,9.00
2023-09-28T04:47:47.798Z,8.98
2023-09-28T04:57:51.271Z,12.18
2023-09-28T05:07:55.350Z,11.93
2023-09-28T05:17:58.059Z,10.10
2023-09-28T05:28:02.134Z,12.40
2023-09-28T05:38:05.238Z,10.18
2023-09-28T05:48:09.399Z,10.57
2023-09-28T05:58:12.176Z,10.57
2023-09-28T06:08:19.821Z,14.55
2023-09-28T06:18:22.533Z,8.73
2023-09-28T06:28:28.698Z,11.35
2023-09-28T06:38:31.513Z,10.63
2023-09-28T06:48:35.668Z,12.75
2023-09-28T06:58:38.366Z,11.65
2023-09-28T07:08:42.430Z,14.25
2023-09-28T07:18:45.129Z,14.07
2023-09-28T07:28:50.008Z,6.70
2023-09-28T07:38:52.895Z,16.50
2023-09-28T07:48:57.387Z,12.23
2023-09-28T07:59:00.910Z,18.35
2023-09-28T08:09:05.319Z,18.70
2023-09-28T08:19:09.938Z,18.10
2023-09-28T08:29:16.518Z,13.52
2023-09-28T08:39:19.540Z,19.58
2023-09-28T08:49:24.705Z,17.02
2023-09-28T08:59:30.204Z,16.23
2023-09-28T09:09:35.936Z,17.30
2023-09-28T09:19:39.445Z,26.52
2023-09-28T09:29:43.478Z,21.77
2023-09-28T09:39:46.495Z,20.95
2023-09-28T09:49:52.956Z,13.82
2023-09-28T09:59:58.041Z,15.63
2023-09-28T10:10:05.145Z,17.33
2023-09-28T10:20:09.771Z,19.10
2023-09-28T10:30:21.598Z,17.55
2023-09-28T10:40:33.926Z,22.60
2023-09-28T10:50:47.546Z,17.70
2023-09-28T11:00:50.313Z,15.13
2023-09-28T11:10:56.757Z,14.70
2023-09-28T11:21:00.868Z,14.98
2023-09-28T11:31:13.053Z,14.20
2023-09-28T11:41:16.929Z,15.35
2023-09-28T11:51:21.120Z,13.35
2023-09-28T12:01:23.840Z,15.05
2023-09-28T12:11:27.864Z,16.58
2023-09-28T12:21:30.592Z,13.75
2023-09-28T12:31:36.289Z,22.40
2023-09-28T12:41:39.108Z,18.92
2023-09-28T12:51:46.208Z,17.13
2023-09-28T13:01:49.482Z,18.57
2023-09-28T13:11:53.693Z,15.15
2023-09-28T13:21:57.809Z,19.90
2023-09-28T13:32:02.546Z,13.90
2023-09-28T13:42:07.070Z,23.08
2023-09-28T13:52:12.021Z,17.67
2023-09-28T14:02:15.912Z,17.73
2023-09-28T14:12:20.092Z,23.13
2023-09-28T14:22:22.827Z,18.58
2023-09-28T14:32:27.009Z,15.05
2023-09-28T14:42:30.135Z,18.98
2023-09-28T14:52:34.406Z,17.13
2023-09-28T15:02:37.341Z,16.95
2023-09-28T15:12:41.968Z,19.00
2023-09-28T15:22:46.078Z,18.00
2023-09-28T15:32:50.297Z,17.17
2023-09-28T15:42:53.328Z,14.65
2023-09-28T15:52:57.950Z,20.70
2023-09-28T16:03:00.726Z,14.55
2023-09-28T16:13:05.515Z,13.15
2023-09-28T16:23:08.234Z,15.77
2023-09-28T16:33:12.358Z,21.40
2023-09-28T16:43:15.142Z,21.90
2023-09-28T16:53:19.504Z,28.17
2023-09-28T17:03:22.439Z,16.38
2023-09-28T17:13:26.718Z,20.35
2023-09-28T17:23:29.504Z,17.25
2023-09-28T17:33:33.899Z,15.93
2023-09-28T17:43:36.764Z,13.30
2023-09-28T17:53:40.921Z,19.10
2023-09-28T18:03:43.669Z,21.15
2023-09-28T18:13:48.315Z,14.80
2023-09-28T18:23:51.180Z,16.90
2023-09-28T18:33:57.662Z,16.00
2023-09-28T18:44:00.670Z,15.80
2023-09-28T18:54:04.804Z,12.80
2023-09-28T19:04:07.757Z,18.10
2023-09-28T19:14:11.760Z,18.15
2023-09-28T19:24:14.716Z,15.50
2023-09-28T19:34:18.861Z,24.10
2023-09-28T19:44:21.912Z,22.13
2023-09-28T19:54:26.101Z,23.40
2023-09-28T20:04:28.787Z,19.27
2023-09-28T20:14:33.113Z,16.98
2023-09-28T20:24:35.834Z,15.40
2023-09-28T20:34:39.837Z,15.20
2023-09-28T20:44:45.792Z,18.50
2023-09-28T20:54:49.900Z,21.02
2023-09-28T21:04:53.354Z,24.05
2023-09-28T21:14:57.367Z,19.15
2023-09-28T21:25:00.449Z,21.60
2023-09-28T21:35:05.094Z,22.65
2023-09-28T21:45:09.846Z,21.17
2023-09-28T21:55:14.340Z,29.63
2023-09-28T22:05:17.284Z,23.70
2023-09-28T22:15:22.292Z,17.48
2023-09-28T22:25:24.994Z,13.32
2023-09-28T22:35:29.363Z,15.02
2023-09-28T22:45:32.015Z,23.23
2023-09-28T22:55:36.380Z,16.00
2023-09-28T23:05:39.140Z,17.73
2023-09-28T23:15:43.248Z,26.95
2023-09-28T23:25:45.926Z,19.45
2023-09-28T23:35:50.312Z,20.90
2023-09-28T23:45:55.122Z,21.70
2023-09-28T23:56:00.373Z,15.40
